sensor_id;sensor_type;location;lat;lon;timestamp;P1;durP1;ratioP1;P2;durP2;ratioP2
69534;SDS011;56754;51.568;5.048;2023-07-09T00:02:18;6.03;;;3.05;;
69534;SDS011;56754;51.568;5.048;2023-07-09T00:04:44;5.60;;;3.03;;
69534;SDS011;56754;51.568;5.048;2023-07-09T00:07:28;7.20;;;3.05;;
69534;SDS011;56754;51.568;5.048;2023-07-09T00:09:56;5.80;;;2.92;;
69534;SDS011;56754;51.568;5.048;2023-07-09T00:12:22;7.43;;;3.40;;
69534;SDS011;56754;51.568;5.048;2023-07-09T00:14:48;5.63;;;3.00;;
69534;SDS011;56754;51.568;5.048;2023-07-09T00:17:26;7.50;;;3.40;;
69534;SDS011;56754;51.568;5.048;2023-07-09T00:19:56;6.60;;;3.05;;
69534;SDS011;56754;51.568;5.048;2023-07-09T00:22:22;6.50;;;3.47;;
69534;SDS011;56754;51.568;5.048;2023-07-09T00:24:48;5.90;;;2.97;;
69534;SDS011;56754;51.568;5.048;2023-07-09T00:27:16;6.47;;;3.55;;
69534;SDS011;56754;51.568;5.048;2023-07-09T00:29:43;7.90;;;3.53;;
69534;SDS011;56754;51.568;5.048;2023-07-09T00:32:12;9.67;;;3.60;;
69534;SDS011;56754;51.568;5.048;2023-07-09T00:34:45;6.53;;;3.38;;
69534;SDS011;56754;51.568;5.048;2023-07-09T00:37:10;8.32;;;3.70;;
69534;SDS011;56754;51.568;5.048;2023-07-09T00:39:36;6.93;;;3.40;;
69534;SDS011;56754;51.568;5.048;2023-07-09T00:42:01;5.57;;;3.13;;
69534;SDS011;56754;51.568;5.048;2023-07-09T00:44:28;6.75;;;3.95;;
69534;SDS011;56754;51.568;5.048;2023-07-09T00:49:33;7.57;;;3.80;;
69534;SDS011;56754;51.568;5.048;2023-07-09T00:52:03;22.27;;;6.28;;
69534;SDS011;56754;51.568;5.048;2023-07-09T00:54:38;6.72;;;3.78;;
69534;SDS011;56754;51.568;5.048;2023-07-09T00:57:09;7.45;;;4.30;;
69534;SDS011;56754;51.568;5.048;2023-07-09T00:59:38;8.05;;;4.20;;
69534;SDS011;56754;51.568;5.048;2023-07-09T01:02:05;7.30;;;4.13;;
69534;SDS011;56754;51.568;5.048;2023-07-09T01:04:32;6.50;;;3.90;;
69534;SDS011;56754;51.568;5.048;2023-07-09T01:06:58;7.65;;;4.35;;
69534;SDS011;56754;51.568;5.048;2023-07-09T01:09:23;7.87;;;4.20;;
69534;SDS011;56754;51.568;5.048;2023-07-09T01:11:49;9.65;;;4.65;;
69534;SDS011;56754;51.568;5.048;2023-07-09T01:14:15;7.73;;;4.40;;
69534;SDS011;56754;51.568;5.048;2023-07-09T01:16:45;7.63;;;4.30;;
69534;SDS011;56754;51.568;5.048;2023-07-09T01:19:14;8.70;;;4.37;;
69534;SDS011;56754;51.568;5.048;2023-07-09T01:21:39;8.52;;;4.90;;
69534;SDS011;56754;51.568;5.048;2023-07-09T01:24:16;7.77;;;4.20;;
69534;SDS011;56754;51.568;5.048;2023-07-09T01:27:19;7.70;;;4.30;;
69534;SDS011;56754;51.568;5.048;2023-07-09T01:29:50;8.32;;;4.80;;
69534;SDS011;56754;51.568;5.048;2023-07-09T01:32:16;9.07;;;4.77;;
69534;SDS011;56754;51.568;5.048;2023-07-09T01:34:42;9.15;;;4.85;;
69534;SDS011;56754;51.568;5.048;2023-07-09T01:37:08;10.30;;;5.00;;
69534;SDS011;56754;51.568;5.048;2023-07-09T01:39:33;8.70;;;4.90;;
69534;SDS011;56754;51.568;5.048;2023-07-09T01:41:58;7.97;;;4.97;;
69534;SDS011;56754;51.568;5.048;2023-07-09T01:44:24;9.77;;;5.13;;
69534;SDS011;56754;51.568;5.048;2023-07-09T01:46:49;9.10;;;5.30;;
69534;SDS011;56754;51.568;5.048;2023-07-09T01:49:14;8.60;;;5.00;;
69534;SDS011;56754;51.568;5.048;2023-07-09T01:51:39;9.35;;;5.03;;
69534;SDS011;56754;51.568;5.048;2023-07-09T01:54:05;7.87;;;4.70;;
69534;SDS011;56754;51.568;5.048;2023-07-09T01:56:30;7.73;;;4.97;;
69534;SDS011;56754;51.568;5.048;2023-07-09T01:58:56;9.47;;;4.80;;
69534;SDS011;56754;51.568;5.048;2023-07-09T02:01:21;9.43;;;5.47;;
69534;SDS011;56754;51.568;5.048;2023-07-09T02:03:46;10.38;;;5.70;;
69534;SDS011;56754;51.568;5.048;2023-07-09T02:06:12;8.20;;;4.80;;
69534;SDS011;56754;51.568;5.048;2023-07-09T02:08:37;9.33;;;5.50;;
69534;SDS011;56754;51.568;5.048;2023-07-09T02:11:03;9.53;;;5.20;;
69534;SDS011;56754;51.568;5.048;2023-07-09T02:13:28;9.10;;;5.45;;
69534;SDS011;56754;51.568;5.048;2023-07-09T02:15:54;8.03;;;4.80;;
69534;SDS011;56754;51.568;5.048;2023-07-09T02:18:19;11.30;;;5.57;;
69534;SDS011;56754;51.568;5.048;2023-07-09T02:20:47;8.67;;;5.23;;
69534;SDS011;56754;51.568;5.048;2023-07-09T02:23:12;9.38;;;5.53;;
69534;SDS011;56754;51.568;5.048;2023-07-09T02:25:38;9.30;;;5.07;;
69534;SDS011;56754;51.568;5.048;2023-07-09T02:28:03;9.90;;;5.50;;
69534;SDS011;56754;51.568;5.048;2023-07-09T02:30:28;9.70;;;5.50;;
69534;SDS011;56754;51.568;5.048;2023-07-09T02:32:54;9.07;;;5.20;;
69534;SDS011;56754;51.568;5.048;2023-07-09T02:35:20;10.27;;;6.03;;
69534;SDS011;56754;51.568;5.048;2023-07-09T02:37:45;10.85;;;5.50;;
69534;SDS011;56754;51.568;5.048;2023-07-09T02:40:12;11.63;;;5.63;;
69534;SDS011;56754;51.568;5.048;2023-07-09T02:42:38;8.97;;;5.10;;
69534;SDS011;56754;51.568;5.048;2023-07-09T02:45:03;9.82;;;5.25;;
69534;SDS011;56754;51.568;5.048;2023-07-09T02:47:29;11.30;;;5.70;;
69534;SDS011;56754;51.568;5.048;2023-07-09T02:49:54;9.60;;;5.60;;
69534;SDS011;56754;51.568;5.048;2023-07-09T02:52:20;9.70;;;5.65;;
69534;SDS011;56754;51.568;5.048;2023-07-09T02:54:45;8.77;;;5.47;;
69534;SDS011;56754;51.568;5.048;2023-07-09T02:57:11;9.83;;;5.27;;
69534;SDS011;56754;51.568;5.048;2023-07-09T02:59:36;8.98;;;5.38;;
69534;SDS011;56754;51.568;5.048;2023-07-09T03:02:02;11.97;;;5.60;;
69534;SDS011;56754;51.568;5.048;2023-07-09T03:04:28;10.20;;;5.23;;
69534;SDS011;56754;51.568;5.048;2023-07-09T03:06:53;10.13;;;5.65;;
69534;SDS011;56754;51.568;5.048;2023-07-09T03:09:19;9.70;;;5.73;;
69534;SDS011;56754;51.568;5.048;2023-07-09T03:11:44;9.93;;;5.50;;
69534;SDS011;56754;51.568;5.048;2023-07-09T03:14:10;9.20;;;5.60;;
69534;SDS011;56754;51.568;5.048;2023-07-09T03:16:35;10.80;;;6.00;;
69534;SDS011;56754;51.568;5.048;2023-07-09T03:19:01;9.10;;;5.40;;
69534;SDS011;56754;51.568;5.048;2023-07-09T03:21:27;10.20;;;5.70;;
69534;SDS011;56754;51.568;5.048;2023-07-09T03:23:54;8.60;;;5.32;;
69534;SDS011;56754;51.568;5.048;2023-07-09T03:26:19;9.10;;;5.57;;
69534;SDS011;56754;51.568;5.048;2023-07-09T03:28:45;8.53;;;5.40;;
69534;SDS011;56754;51.568;5.048;2023-07-09T03:31:10;8.93;;;5.50;;
69534;SDS011;56754;51.568;5.048;2023-07-09T03:33:36;9.20;;;5.47;;
69534;SDS011;56754;51.568;5.048;2023-07-09T03:36:02;8.37;;;5.20;;
69534;SDS011;56754;51.568;5.048;2023-07-09T03:38:28;11.25;;;5.50;;
69534;SDS011;56754;51.568;5.048;2023-07-09T03:40:53;9.10;;;5.60;;
69534;SDS011;56754;51.568;5.048;2023-07-09T03:43:19;8.73;;;5.53;;
69534;SDS011;56754;51.568;5.048;2023-07-09T03:45:45;9.98;;;5.53;;
69534;SDS011;56754;51.568;5.048;2023-07-09T03:48:11;10.83;;;5.93;;
69534;SDS011;56754;51.568;5.048;2023-07-09T03:50:37;10.98;;;5.50;;
69534;SDS011;56754;51.568;5.048;2023-07-09T03:53:03;9.73;;;5.57;;
69534;SDS011;56754;51.568;5.048;2023-07-09T03:55:28;12.37;;;6.00;;
69534;SDS011;56754;51.568;5.048;2023-07-09T03:57:54;11.27;;;5.85;;
69534;SDS011;56754;51.568;5.048;2023-07-09T04:00:20;10.57;;;5.90;;
69534;SDS011;56754;51.568;5.048;2023-07-09T04:02:46;9.27;;;5.57;;
69534;SDS011;56754;51.568;5.048;2023-07-09T04:05:11;10.93;;;5.75;;
69534;SDS011;56754;51.568;5.048;2023-07-09T04:07:37;10.53;;;5.73;;
69534;SDS011;56754;51.568;5.048;2023-07-09T04:10:03;14.00;;;5.80;;
69534;SDS011;56754;51.568;5.048;2023-07-09T04:12:29;10.05;;;5.60;;
69534;SDS011;56754;51.568;5.048;2023-07-09T04:14:54;12.50;;;6.13;;
69534;SDS011;56754;51.568;5.048;2023-07-09T04:17:20;9.47;;;5.67;;
69534;SDS011;56754;51.568;5.048;2023-07-09T04:19:45;13.83;;;6.43;;
69534;SDS011;56754;51.568;5.048;2023-07-09T04:22:11;10.65;;;6.03;;
69534;SDS011;56754;51.568;5.048;2023-07-09T04:24:36;12.10;;;5.90;;
69534;SDS011;56754;51.568;5.048;2023-07-09T04:27:01;10.53;;;6.03;;
69534;SDS011;56754;51.568;5.048;2023-07-09T04:29:27;15.68;;;5.70;;
69534;SDS011;56754;51.568;5.048;2023-07-09T04:31:52;10.93;;;6.37;;
69534;SDS011;56754;51.568;5.048;2023-07-09T04:34:17;12.53;;;6.13;;
69534;SDS011;56754;51.568;5.048;2023-07-09T04:36:43;10.53;;;5.97;;
69534;SDS011;56754;51.568;5.048;2023-07-09T04:39:08;9.30;;;5.70;;
69534;SDS011;56754;51.568;5.048;2023-07-09T04:41:33;11.20;;;5.80;;
69534;SDS011;56754;51.568;5.048;2023-07-09T04:43:59;10.50;;;6.17;;
69534;SDS011;56754;51.568;5.048;2023-07-09T04:46:24;10.13;;;5.60;;
69534;SDS011;56754;51.568;5.048;2023-07-09T04:48:49;10.80;;;6.00;;
69534;SDS011;56754;51.568;5.048;2023-07-09T04:51:14;11.10;;;5.70;;
69534;SDS011;56754;51.568;5.048;2023-07-09T04:53:40;10.87;;;6.20;;
69534;SDS011;56754;51.568;5.048;2023-07-09T04:56:05;11.77;;;5.40;;
69534;SDS011;56754;51.568;5.048;2023-07-09T04:58:30;9.53;;;5.63;;
69534;SDS011;56754;51.568;5.048;2023-07-09T05:00:56;11.10;;;5.80;;
69534;SDS011;56754;51.568;5.048;2023-07-09T05:03:22;9.00;;;5.43;;
69534;SDS011;56754;51.568;5.048;2023-07-09T05:05:47;12.17;;;5.83;;
69534;SDS011;56754;51.568;5.048;2023-07-09T05:08:13;10.25;;;5.90;;
69534;SDS011;56754;51.568;5.048;2023-07-09T05:10:42;8.67;;;5.13;;
69534;SDS011;56754;51.568;5.048;2023-07-09T05:13:09;9.02;;;5.53;;
69534;SDS011;56754;51.568;5.048;2023-07-09T05:15:35;9.60;;;5.43;;
69534;SDS011;56754;51.568;5.048;2023-07-09T05:18:00;9.33;;;5.00;;
69534;SDS011;56754;51.568;5.048;2023-07-09T05:20:25;9.77;;;5.10;;
69534;SDS011;56754;51.568;5.048;2023-07-09T05:22:51;7.97;;;4.40;;
69534;SDS011;56754;51.568;5.048;2023-07-09T05:25:16;8.40;;;4.60;;
69534;SDS011;56754;51.568;5.048;2023-07-09T05:27:42;8.60;;;5.33;;
69534;SDS011;56754;51.568;5.048;2023-07-09T05:30:07;7.78;;;4.95;;
69534;SDS011;56754;51.568;5.048;2023-07-09T05:32:33;8.27;;;5.30;;
69534;SDS011;56754;51.568;5.048;2023-07-09T05:34:58;8.88;;;5.30;;
69534;SDS011;56754;51.568;5.048;2023-07-09T05:37:24;9.43;;;5.63;;
69534;SDS011;56754;51.568;5.048;2023-07-09T05:39:49;11.23;;;6.83;;
69534;SDS011;56754;51.568;5.048;2023-07-09T05:42:14;8.80;;;5.10;;
69534;SDS011;56754;51.568;5.048;2023-07-09T05:44:40;8.87;;;5.70;;
69534;SDS011;56754;51.568;5.048;2023-07-09T05:47:05;8.03;;;5.07;;
69534;SDS011;56754;51.568;5.048;2023-07-09T05:49:30;8.23;;;5.40;;
69534;SDS011;56754;51.568;5.048;2023-07-09T05:51:56;9.38;;;5.10;;
69534;SDS011;56754;51.568;5.048;2023-07-09T05:54:21;9.30;;;5.20;;
69534;SDS011;56754;51.568;5.048;2023-07-09T05:56:46;8.17;;;5.53;;
69534;SDS011;56754;51.568;5.048;2023-07-09T05:59:11;8.40;;;5.33;;
69534;SDS011;56754;51.568;5.048;2023-07-09T06:01:37;8.57;;;5.47;;
69534;SDS011;56754;51.568;5.048;2023-07-09T06:04:02;10.80;;;5.70;;
69534;SDS011;56754;51.568;5.048;2023-07-09T06:06:27;8.73;;;5.50;;
69534;SDS011;56754;51.568;5.048;2023-07-09T06:08:53;9.23;;;5.33;;
69534;SDS011;56754;51.568;5.048;2023-07-09T06:11:18;9.52;;;5.65;;
69534;SDS011;56754;51.568;5.048;2023-07-09T06:13:44;10.43;;;5.97;;
69534;SDS011;56754;51.568;5.048;2023-07-09T06:16:10;8.13;;;5.32;;
69534;SDS011;56754;51.568;5.048;2023-07-09T06:18:36;8.80;;;5.47;;
69534;SDS011;56754;51.568;5.048;2023-07-09T06:21:01;8.77;;;5.40;;
69534;SDS011;56754;51.568;5.048;2023-07-09T06:23:28;8.80;;;5.18;;
69534;SDS011;56754;51.568;5.048;2023-07-09T06:25:54;8.70;;;5.70;;
69534;SDS011;56754;51.568;5.048;2023-07-09T06:28:20;8.53;;;5.53;;
69534;SDS011;56754;51.568;5.048;2023-07-09T06:30:47;9.98;;;5.90;;
69534;SDS011;56754;51.568;5.048;2023-07-09T06:33:13;8.00;;;5.37;;
69534;SDS011;56754;51.568;5.048;2023-07-09T06:35:45;8.95;;;5.57;;
69534;SDS011;56754;51.568;5.048;2023-07-09T06:38:11;7.93;;;5.20;;
69534;SDS011;56754;51.568;5.048;2023-07-09T06:40:37;10.50;;;5.60;;
69534;SDS011;56754;51.568;5.048;2023-07-09T06:43:02;9.77;;;5.43;;
69534;SDS011;56754;51.568;5.048;2023-07-09T06:45:27;8.93;;;5.80;;
69534;SDS011;56754;51.568;5.048;2023-07-09T06:47:52;9.17;;;5.67;;
69534;SDS011;56754;51.568;5.048;2023-07-09T06:50:18;9.13;;;5.97;;
69534;SDS011;56754;51.568;5.048;2023-07-09T06:52:43;9.07;;;5.82;;
69534;SDS011;56754;51.568;5.048;2023-07-09T06:55:09;8.40;;;5.47;;
69534;SDS011;56754;51.568;5.048;2023-07-09T06:57:34;8.93;;;5.90;;
69534;SDS011;56754;51.568;5.048;2023-07-09T06:59:59;8.67;;;5.67;;
69534;SDS011;56754;51.568;5.048;2023-07-09T07:02:25;8.45;;;5.68;;
69534;SDS011;56754;51.568;5.048;2023-07-09T07:04:50;7.37;;;4.93;;
69534;SDS011;56754;51.568;5.048;2023-07-09T07:07:15;7.97;;;5.60;;
69534;SDS011;56754;51.568;5.048;2023-07-09T07:09:41;8.67;;;5.70;;
69534;SDS011;56754;51.568;5.048;2023-07-09T07:12:06;8.23;;;5.37;;
69534;SDS011;56754;51.568;5.048;2023-07-09T07:14:32;9.10;;;5.60;;
69534;SDS011;56754;51.568;5.048;2023-07-09T07:16:57;9.03;;;5.67;;
69534;SDS011;56754;51.568;5.048;2023-07-09T07:19:23;8.53;;;5.70;;
69534;SDS011;56754;51.568;5.048;2023-07-09T07:21:48;8.80;;;5.32;;
69534;SDS011;56754;51.568;5.048;2023-07-09T07:24:13;8.50;;;5.23;;
69534;SDS011;56754;51.568;5.048;2023-07-09T07:26:39;9.10;;;5.70;;
69534;SDS011;56754;51.568;5.048;2023-07-09T07:29:04;8.53;;;5.70;;
69534;SDS011;56754;51.568;5.048;2023-07-09T07:31:29;8.53;;;5.57;;
69534;SDS011;56754;51.568;5.048;2023-07-09T07:33:55;8.63;;;5.30;;
69534;SDS011;56754;51.568;5.048;2023-07-09T07:36:20;8.63;;;5.53;;
69534;SDS011;56754;51.568;5.048;2023-07-09T07:38:45;8.63;;;5.23;;
69534;SDS011;56754;51.568;5.048;2023-07-09T07:41:10;8.93;;;5.40;;
69534;SDS011;56754;51.568;5.048;2023-07-09T07:43:36;8.60;;;5.20;;
69534;SDS011;56754;51.568;5.048;2023-07-09T07:46:01;9.13;;;6.00;;
69534;SDS011;56754;51.568;5.048;2023-07-09T07:48:26;8.10;;;5.00;;
69534;SDS011;56754;51.568;5.048;2023-07-09T07:50:54;8.13;;;4.90;;
69534;SDS011;56754;51.568;5.048;2023-07-09T07:53:23;7.85;;;5.45;;
69534;SDS011;56754;51.568;5.048;2023-07-09T07:55:48;8.93;;;5.20;;
69534;SDS011;56754;51.568;5.048;2023-07-09T07:58:14;7.93;;;5.40;;
69534;SDS011;56754;51.568;5.048;2023-07-09T08:00:39;8.20;;;5.07;;
69534;SDS011;56754;51.568;5.048;2023-07-09T08:03:05;8.00;;;5.05;;
69534;SDS011;56754;51.568;5.048;2023-07-09T08:05:30;8.50;;;5.33;;
69534;SDS011;56754;51.568;5.048;2023-07-09T08:07:55;8.47;;;5.20;;
69534;SDS011;56754;51.568;5.048;2023-07-09T08:10:21;7.87;;;4.80;;
69534;SDS011;56754;51.568;5.048;2023-07-09T08:12:46;7.70;;;4.57;;
69534;SDS011;56754;51.568;5.048;2023-07-09T08:15:12;8.27;;;5.07;;
69534;SDS011;56754;51.568;5.048;2023-07-09T08:17:37;7.40;;;4.80;;
69534;SDS011;56754;51.568;5.048;2023-07-09T08:20:03;7.75;;;5.07;;
69534;SDS011;56754;51.568;5.048;2023-07-09T08:22:29;6.97;;;4.63;;
69534;SDS011;56754;51.568;5.048;2023-07-09T08:24:54;8.27;;;4.93;;
69534;SDS011;56754;51.568;5.048;2023-07-09T08:27:20;8.17;;;4.93;;
69534;SDS011;56754;51.568;5.048;2023-07-09T08:29:46;8.37;;;4.70;;
69534;SDS011;56754;51.568;5.048;2023-07-09T08:32:11;8.90;;;5.10;;
69534;SDS011;56754;51.568;5.048;2023-07-09T08:34:38;7.60;;;4.73;;
69534;SDS011;56754;51.568;5.048;2023-07-09T08:37:05;6.95;;;4.53;;
69534;SDS011;56754;51.568;5.048;2023-07-09T08:39:31;7.38;;;5.00;;
69534;SDS011;56754;51.568;5.048;2023-07-09T08:42:04;7.13;;;4.70;;
69534;SDS011;56754;51.568;5.048;2023-07-09T08:47:49;7.10;;;4.47;;
69534;SDS011;56754;51.568;5.048;2023-07-09T08:50:09;8.95;;;5.05;;
69534;SDS011;56754;51.568;5.048;2023-07-09T08:52:41;7.37;;;4.70;;
69534;SDS011;56754;51.568;5.048;2023-07-09T08:55:13;8.65;;;5.35;;
69534;SDS011;56754;51.568;5.048;2023-07-09T08:57:42;6.88;;;4.38;;
69534;SDS011;56754;51.568;5.048;2023-07-09T09:00:14;7.20;;;4.35;;
69534;SDS011;56754;51.568;5.048;2023-07-09T09:02:44;8.68;;;4.88;;
69534;SDS011;56754;51.568;5.048;2023-07-09T09:05:20;7.50;;;4.83;;
69534;SDS011;56754;51.568;5.048;2023-07-09T09:07:48;7.90;;;4.78;;
69534;SDS011;56754;51.568;5.048;2023-07-09T09:10:51;7.07;;;4.65;;
69534;SDS011;56754;51.568;5.048;2023-07-09T09:13:19;7.10;;;4.68;;
69534;SDS011;56754;51.568;5.048;2023-07-09T09:15:47;7.28;;;4.70;;
69534;SDS011;56754;51.568;5.048;2023-07-09T09:20:51;7.03;;;4.40;;
69534;SDS011;56754;51.568;5.048;2023-07-09T09:23:20;7.53;;;4.63;;
69534;SDS011;56754;51.568;5.048;2023-07-09T09:25:51;6.73;;;4.70;;
69534;SDS011;56754;51.568;5.048;2023-07-09T09:28:18;7.82;;;4.22;;
69534;SDS011;56754;51.568;5.048;2023-07-09T09:30:43;7.20;;;4.30;;
69534;SDS011;56754;51.568;5.048;2023-07-09T09:33:10;6.73;;;4.27;;
69534;SDS011;56754;51.568;5.048;2023-07-09T09:35:37;6.72;;;4.40;;
69534;SDS011;56754;51.568;5.048;2023-07-09T09:38:25;7.45;;;4.72;;
69534;SDS011;56754;51.568;5.048;2023-07-09T09:40:49;6.95;;;4.18;;
69534;SDS011;56754;51.568;5.048;2023-07-09T09:43:19;6.90;;;4.17;;
69534;SDS011;56754;51.568;5.048;2023-07-09T09:45:46;6.90;;;4.22;;
69534;SDS011;56754;51.568;5.048;2023-07-09T09:48:20;6.60;;;4.18;;
69534;SDS011;56754;51.568;5.048;2023-07-09T09:50:53;6.75;;;4.25;;
69534;SDS011;56754;51.568;5.048;2023-07-09T09:53:22;7.00;;;4.30;;
69534;SDS011;56754;51.568;5.048;2023-07-09T09:55:50;6.70;;;4.07;;
69534;SDS011;56754;51.568;5.048;2023-07-09T09:58:17;6.68;;;4.22;;
69534;SDS011;56754;51.568;5.048;2023-07-09T10:00:51;6.15;;;3.97;;
69534;SDS011;56754;51.568;5.048;2023-07-09T10:03:18;6.23;;;3.90;;
69534;SDS011;56754;51.568;5.048;2023-07-09T10:05:45;7.13;;;4.15;;
69534;SDS011;56754;51.568;5.048;2023-07-09T10:11:47;6.57;;;4.35;;
69534;SDS011;56754;51.568;5.048;2023-07-09T10:14:19;9.45;;;4.05;;
69534;SDS011;56754;51.568;5.048;2023-07-09T10:23:08;6.97;;;4.20;;
69534;SDS011;56754;51.568;5.048;2023-07-09T10:26:02;6.68;;;3.78;;
69534;SDS011;56754;51.568;5.048;2023-07-09T10:37:00;6.50;;;3.83;;
69534;SDS011;56754;51.568;5.048;2023-07-09T10:39:37;6.88;;;4.20;;
69534;SDS011;56754;51.568;5.048;2023-07-09T10:42:07;6.50;;;4.10;;
69534;SDS011;56754;51.568;5.048;2023-07-09T10:44:41;6.70;;;4.10;;
69534;SDS011;56754;51.568;5.048;2023-07-09T10:47:17;7.90;;;4.20;;
69534;SDS011;56754;51.568;5.048;2023-07-09T10:50:09;7.05;;;3.65;;
69534;SDS011;56754;51.568;5.048;2023-07-09T10:52:57;6.63;;;4.13;;
69534;SDS011;56754;51.568;5.048;2023-07-09T10:55:38;6.63;;;4.10;;
69534;SDS011;56754;51.568;5.048;2023-07-09T10:58:19;5.83;;;3.67;;
69534;SDS011;56754;51.568;5.048;2023-07-09T11:00:45;6.72;;;4.18;;
69534;SDS011;56754;51.568;5.048;2023-07-09T11:03:47;6.15;;;3.78;;
69534;SDS011;56754;51.568;5.048;2023-07-09T11:06:15;6.53;;;4.07;;
69534;SDS011;56754;51.568;5.048;2023-07-09T11:08:51;6.30;;;3.83;;
69534;SDS011;56754;51.568;5.048;2023-07-09T11:11:24;6.35;;;3.83;;
69534;SDS011;56754;51.568;5.048;2023-07-09T11:13:57;6.35;;;3.92;;
69534;SDS011;56754;51.568;5.048;2023-07-09T11:16:32;6.97;;;4.03;;
69534;SDS011;56754;51.568;5.048;2023-07-09T11:19:04;6.10;;;3.95;;
69534;SDS011;56754;51.568;5.048;2023-07-09T11:21:45;6.17;;;3.87;;
69534;SDS011;56754;51.568;5.048;2023-07-09T11:26:57;5.85;;;3.70;;
69534;SDS011;56754;51.568;5.048;2023-07-09T11:29:23;5.93;;;3.57;;
69534;SDS011;56754;51.568;5.048;2023-07-09T11:31:48;6.32;;;3.78;;
69534;SDS011;56754;51.568;5.048;2023-07-09T11:42:01;6.33;;;3.77;;
69534;SDS011;56754;51.568;5.048;2023-07-09T11:44:30;6.10;;;3.77;;
69534;SDS011;56754;51.568;5.048;2023-07-09T11:47:01;7.13;;;4.00;;
69534;SDS011;56754;51.568;5.048;2023-07-09T11:49:34;6.28;;;3.92;;
69534;SDS011;56754;51.568;5.048;2023-07-09T11:52:11;6.23;;;3.70;;
69534;SDS011;56754;51.568;5.048;2023-07-09T11:54:37;6.18;;;3.80;;
69534;SDS011;56754;51.568;5.048;2023-07-09T11:57:04;6.17;;;3.80;;
69534;SDS011;56754;51.568;5.048;2023-07-09T11:59:40;6.78;;;4.10;;
69534;SDS011;56754;51.568;5.048;2023-07-09T12:02:13;5.63;;;3.22;;
69534;SDS011;56754;51.568;5.048;2023-07-09T12:04:42;7.18;;;4.25;;
69534;SDS011;56754;51.568;5.048;2023-07-09T12:07:09;6.57;;;3.90;;
69534;SDS011;56754;51.568;5.048;2023-07-09T12:09:39;6.38;;;3.90;;
69534;SDS011;56754;51.568;5.048;2023-07-09T12:12:24;6.25;;;4.28;;
69534;SDS011;56754;51.568;5.048;2023-07-09T12:14:50;7.10;;;4.22;;
69534;SDS011;56754;51.568;5.048;2023-07-09T12:17:16;5.90;;;4.00;;
69534;SDS011;56754;51.568;5.048;2023-07-09T12:19:41;6.57;;;3.80;;
69534;SDS011;56754;51.568;5.048;2023-07-09T12:22:18;8.30;;;4.47;;
69534;SDS011;56754;51.568;5.048;2023-07-09T12:24:45;6.83;;;4.17;;
69534;SDS011;56754;51.568;5.048;2023-07-09T12:27:20;5.65;;;3.80;;
69534;SDS011;56754;51.568;5.048;2023-07-09T12:29:45;6.40;;;4.00;;
69534;SDS011;56754;51.568;5.048;2023-07-09T12:32:13;8.02;;;4.20;;
69534;SDS011;56754;51.568;5.048;2023-07-09T12:34:40;7.85;;;4.43;;
69534;SDS011;56754;51.568;5.048;2023-07-09T12:37:07;6.63;;;4.47;;
69534;SDS011;56754;51.568;5.048;2023-07-09T12:39:38;7.03;;;4.20;;
69534;SDS011;56754;51.568;5.048;2023-07-09T12:42:04;8.02;;;4.30;;
69534;SDS011;56754;51.568;5.048;2023-07-09T12:44:30;7.00;;;4.20;;
69534;SDS011;56754;51.568;5.048;2023-07-09T12:46:59;6.20;;;4.13;;
69534;SDS011;56754;51.568;5.048;2023-07-09T12:49:26;7.60;;;4.63;;
69534;SDS011;56754;51.568;5.048;2023-07-09T12:51:54;7.03;;;4.30;;
69534;SDS011;56754;51.568;5.048;2023-07-09T12:54:21;7.05;;;4.13;;
69534;SDS011;56754;51.568;5.048;2023-07-09T12:56:49;7.17;;;4.40;;
69534;SDS011;56754;51.568;5.048;2023-07-09T12:59:18;6.95;;;4.57;;
69534;SDS011;56754;51.568;5.048;2023-07-09T13:01:48;6.60;;;4.35;;
69534;SDS011;56754;51.568;5.048;2023-07-09T13:04:14;6.93;;;4.43;;
69534;SDS011;56754;51.568;5.048;2023-07-09T13:06:40;6.70;;;4.40;;
69534;SDS011;56754;51.568;5.048;2023-07-09T13:09:20;7.10;;;4.45;;
69534;SDS011;56754;51.568;5.048;2023-07-09T13:11:46;7.43;;;4.50;;
69534;SDS011;56754;51.568;5.048;2023-07-09T13:14:22;7.75;;;4.38;;
69534;SDS011;56754;51.568;5.048;2023-07-09T13:16:50;6.80;;;4.50;;
69534;SDS011;56754;51.568;5.048;2023-07-09T13:19:19;7.43;;;4.35;;
69534;SDS011;56754;51.568;5.048;2023-07-09T13:21:44;7.18;;;4.28;;
69534;SDS011;56754;51.568;5.048;2023-07-09T13:24:20;6.80;;;4.05;;
69534;SDS011;56754;51.568;5.048;2023-07-09T13:26:48;6.97;;;4.78;;
69534;SDS011;56754;51.568;5.048;2023-07-09T13:29:14;7.20;;;4.37;;
69534;SDS011;56754;51.568;5.048;2023-07-09T13:31:42;6.53;;;4.38;;
69534;SDS011;56754;51.568;5.048;2023-07-09T13:34:13;6.65;;;4.10;;
69534;SDS011;56754;51.568;5.048;2023-07-09T13:36:43;5.47;;;3.58;;
69534;SDS011;56754;51.568;5.048;2023-07-09T13:39:10;7.27;;;4.10;;
69534;SDS011;56754;51.568;5.048;2023-07-09T13:41:36;7.15;;;4.30;;
69534;SDS011;56754;51.568;5.048;2023-07-09T13:44:04;6.20;;;3.93;;
69534;SDS011;56754;51.568;5.048;2023-07-09T13:46:37;7.00;;;4.45;;
69534;SDS011;56754;51.568;5.048;2023-07-09T13:49:04;5.50;;;3.80;;
69534;SDS011;56754;51.568;5.048;2023-07-09T13:51:33;6.85;;;4.18;;
69534;SDS011;56754;51.568;5.048;2023-07-09T13:53:58;6.07;;;3.77;;
69534;SDS011;56754;51.568;5.048;2023-07-09T13:56:23;7.50;;;4.00;;
69534;SDS011;56754;51.568;5.048;2023-07-09T13:58:49;6.27;;;3.47;;
69534;SDS011;56754;51.568;5.048;2023-07-09T14:01:16;7.07;;;4.03;;
69534;SDS011;56754;51.568;5.048;2023-07-09T14:03:45;6.17;;;3.93;;
69534;SDS011;56754;51.568;5.048;2023-07-09T14:06:11;8.40;;;3.87;;
69534;SDS011;56754;51.568;5.048;2023-07-09T14:08:38;6.27;;;3.80;;
69534;SDS011;56754;51.568;5.048;2023-07-09T14:11:07;7.70;;;3.93;;
69534;SDS011;56754;51.568;5.048;2023-07-09T14:13:34;6.00;;;3.30;;
69534;SDS011;56754;51.568;5.048;2023-07-09T14:16:00;6.37;;;3.30;;
69534;SDS011;56754;51.568;5.048;2023-07-09T14:18:25;6.65;;;3.85;;
69534;SDS011;56754;51.568;5.048;2023-07-09T14:20:50;6.43;;;3.30;;
69534;SDS011;56754;51.568;5.048;2023-07-09T14:23:16;6.43;;;3.77;;
69534;SDS011;56754;51.568;5.048;2023-07-09T14:25:43;6.30;;;3.72;;
69534;SDS011;56754;51.568;5.048;2023-07-09T14:28:27;7.35;;;3.65;;
69534;SDS011;56754;51.568;5.048;2023-07-09T14:30:52;7.43;;;3.70;;
69534;SDS011;56754;51.568;5.048;2023-07-09T14:33:18;6.47;;;3.40;;
69534;SDS011;56754;51.568;5.048;2023-07-09T14:35:45;5.90;;;3.38;;
69534;SDS011;56754;51.568;5.048;2023-07-09T14:38:22;6.70;;;3.60;;
69534;SDS011;56754;51.568;5.048;2023-07-09T14:40:50;7.82;;;3.40;;
69534;SDS011;56754;51.568;5.048;2023-07-09T14:43:17;5.40;;;3.10;;
69534;SDS011;56754;51.568;5.048;2023-07-09T14:45:43;7.10;;;3.17;;
69534;SDS011;56754;51.568;5.048;2023-07-09T14:48:09;6.80;;;3.40;;
69534;SDS011;56754;51.568;5.048;2023-07-09T14:50:36;6.25;;;3.60;;
69534;SDS011;56754;51.568;5.048;2023-07-09T14:53:02;5.83;;;3.17;;
69534;SDS011;56754;51.568;5.048;2023-07-09T14:55:28;7.33;;;3.10;;
69534;SDS011;56754;51.568;5.048;2023-07-09T14:57:53;5.82;;;3.10;;
69534;SDS011;56754;51.568;5.048;2023-07-09T15:00:20;8.30;;;3.47;;
69534;SDS011;56754;51.568;5.048;2023-07-09T15:02:48;6.13;;;2.90;;
69534;SDS011;56754;51.568;5.048;2023-07-09T15:05:16;6.97;;;3.22;;
69534;SDS011;56754;51.568;5.048;2023-07-09T15:07:42;6.68;;;3.08;;
69534;SDS011;56754;51.568;5.048;2023-07-09T15:10:11;7.20;;;3.25;;
69534;SDS011;56754;51.568;5.048;2023-07-09T15:12:38;6.03;;;3.10;;
69534;SDS011;56754;51.568;5.048;2023-07-09T15:17:39;5.73;;;3.20;;
69534;SDS011;56754;51.568;5.048;2023-07-09T15:20:07;6.17;;;3.20;;
69534;SDS011;56754;51.568;5.048;2023-07-09T15:22:37;6.95;;;3.17;;
69534;SDS011;56754;51.568;5.048;2023-07-09T15:25:03;6.93;;;3.10;;
69534;SDS011;56754;51.568;5.048;2023-07-09T15:27:28;6.57;;;3.47;;
69534;SDS011;56754;51.568;5.048;2023-07-09T15:29:53;6.83;;;3.27;;